Chesterfield, Idaho
Current Conditions -  °F | °C
As of 4:53 PM on Tuesday 25 Nov 2014 (Local Time) from KPIH Reporting Station
Broken Clouds Broken Clouds  
Wind Chill: 39°   Ceiling: 2800
Heat Index: 48°   Visibility: 10mi
Dew Point: 41°   Wind: 31mph
Humidity: 77%   Direction: 240°WSW
Pressure: 30.12"   Gusts: 43mph
Location:  42.811°N, 111.938°W
Report Text: KPIH 252353Z 24027G37KT 10SM BKN028 BKN095 09/05 A3012 RMK AO2 PK WND 25041/2339 SLP201 T00890050 10089 20061 58007
Loading
Personal Weather Stations






























Interactive Weather Map New forecast layout! Learn more

10-Day Weather Forecast

Advertisements
Track Severe Weather on mobile